CST,Max TemperatureF,Mean TemperatureF,Min TemperatureF,Max Dew PointF,MeanDew PointF,Min DewpointF,Max Humidity, Mean Humidity, Min Humidity, Max Sea Level PressureIn, Mean Sea Level PressureIn, Min Sea Level PressureIn, Max VisibilityMiles, Mean VisibilityMiles, Min VisibilityMiles, Max Wind SpeedMPH, Mean Wind SpeedMPH, Max Gust SpeedMPH,PrecipitationIn, CloudCover, Events, WindDirDegrees
2013-12-1,30,24,17,23,21,15,95,79,71,30.17,30.09,29.93,10,9,4,7,1,,0.00,7,,257
2013-12-2,33,28,22,32,28,21,100,95,89,29.92,29.74,29.64,7,3,1,8,3,,0.03,8,Snow,120
2013-12-3,32,30,27,32,31,26,99,97,90,29.85,29.73,29.63,10,6,2,12,5,20,0.00,8,Rain-Snow,88
2013-12-4,29,25,20,29,26,16,99,95,83,29.83,29.60,29.40,10,4,0,20,7,30,0.00,8,Snow,48
2013-12-5,20,8,-4,16,0,-9,84,75,66,30.26,29.94,29.55,10,9,5,21,15,31,0.20,3,Snow,258
2013-12-6,1,-4,-10,-7,-11,-16,81,75,65,30.57,30.41,30.26,10,10,7,12,8,17,0.04,1,,260
2013-12-7,-1,-10,-21,-12,-18,-27,82,73,59,30.65,30.60,30.54,10,10,10,13,6,,0.00,0,,247
2013-12-8,10,-5,-20,6,-6,-27,89,81,73,30.53,30.26,30.00,10,4,1,8,1,,0.00,6,Snow,127
2013-12-9,4,-2,-9,1,-8,-14,87,78,64,30.04,29.97,29.89,10,8,1,17,6,25,0.00,3,Snow,241
2013-12-10,4,-5,-14,-4,-8,-19,85,77,63,30.23,29.96,29.76,10,8,2,15,6,23,0.00,3,Snow,255
2013-12-11,-1,-7,-13,-8,-15,-19,82,72,57,30.50,30.39,30.24,10,10,2,12,6,,0.00,1,Snow,259
2013-12-12,12,2,-8,7,-1,-12,85,77,66,30.27,30.20,30.14,10,8,1,8,2,,0.00,6,Snow,250
2013-12-13,12,9,6,7,3,0,85,77,70,30.32,30.24,30.16,10,9,3,10,6,,0.00,6,Snow,53
2013-12-14,14,7,0,9,3,-4,86,82,73,30.31,30.14,30.01,10,4,1,14,4,18,0.00,8,Snow,316
2013-12-15,1,-8,-18,-5,-15,-24,83,72,55,30.13,30.09,30.03,10,10,10,13,7,16,0.00,1,,313
2013-12-16,18,4,-7,16,0,-12,95,81,65,30.11,29.97,29.82,10,7,0,14,3,,0.00,7,Snow,203
2013-12-17,27,11,-6,24,12,-10,94,79,58,30.07,29.91,29.78,10,8,1,22,9,29,0.00,4,Snow,282
2013-12-18,29,10,-9,18,8,-15,95,79,57,30.04,29.77,29.61,10,10,5,16,3,25,0.02,2,,172
2013-12-19,16,14,11,14,10,5,95,81,70,30.09,30.02,29.79,10,9,2,14,7,21,0.00,5,Snow,27
2013-12-20,22,10,-3,14,7,-7,93,84,64,30.05,29.95,29.84,10,9,2,9,4,,0.03,4,Snow,42
2013-12-21,21,13,5,15,12,3,93,85,76,30.00,29.93,29.84,10,9,5,9,2,,0.00,8,Snow,19
2013-12-22,20,14,9,18,14,6,95,87,80,30.17,30.02,29.93,10,6,2,10,5,16,0.00,8,Snow,351
2013-12-23,8,-1,-12,5,-4,-17,87,79,70,30.45,30.33,30.17,10,5,1,12,8,,0.00,7,Snow,320
2013-12-24,9,-5,-19,5,-8,-25,85,78,66,30.44,30.29,30.10,10,8,2,15,4,21,0.00,5,Snow,172
2013-12-25,18,13,8,16,8,3,89,83,73,30.10,30.05,30.00,10,7,2,10,5,,0.00,8,Snow,248
2013-12-26,18,12,6,14,9,3,93,83,73,30.16,30.11,30.07,10,9,1,4,1,,0.00,8,Snow,215
2013-12-27,35,19,3,28,21,0,99,86,68,30.15,29.97,29.81,10,8,2,16,5,22,0.06,3,,213
2013-12-28,35,26,16,35,27,13,100,97,84,30.00,29.83,29.68,10,3,0,20,6,30,0.13,7,Fog,36
2013-12-29,14,-4,-24,11,-14,-31,84,67,48,30.27,30.21,30.02,10,10,10,17,11,25,0.00,3,Snow,338
2013-12-30,-4,-16,-28,-9,-21,-36,84,74,66,30.25,30.21,30.16,10,7,2,4,0,,0.00,4,Snow,225
2013-12-31,-5,-14,-24,-10,-20,-30,83,74,59,30.40,30.28,30.15,10,10,5,8,2,,0.00,1,Snow,312